createdAt,value
2023-01-06T00:01:36.769Z,5.37
2023-01-06T00:04:06.196Z,6.37
2023-01-06T00:06:35.248Z,6.87
2023-01-06T00:09:05.771Z,6.17
2023-01-06T00:11:35.152Z,6.30
2023-01-06T00:14:06.512Z,5.63
2023-01-06T00:16:35.628Z,5.80
2023-01-06T00:19:04.742Z,6.53
2023-01-06T00:21:33.742Z,6.87
2023-01-06T00:24:02.790Z,6.20
2023-01-06T00:26:31.922Z,6.83
2023-01-06T00:29:01.533Z,6.03
2023-01-06T00:31:32.306Z,6.03
2023-01-06T00:34:01.342Z,6.20
2023-01-06T00:36:30.712Z,5.37
2023-01-06T00:38:59.751Z,5.20
2023-01-06T00:41:46.133Z,5.60
2023-01-06T00:44:15.141Z,4.97
2023-01-06T00:46:45.832Z,4.37
2023-01-06T00:49:14.865Z,4.93
2023-01-06T00:51:43.888Z,5.20
2023-01-06T00:54:14.789Z,6.00
2023-01-06T00:56:45.453Z,5.27
2023-01-06T00:59:15.988Z,4.97
2023-01-06T01:01:48.389Z,4.93
2023-01-06T01:04:18.079Z,5.23
2023-01-06T01:06:48.449Z,5.00
2023-01-06T01:09:21.658Z,5.20
2023-01-06T01:12:08.496Z,4.60
2023-01-06T01:14:38.020Z,4.27
2023-01-06T01:17:09.581Z,4.10
2023-01-06T01:19:39.428Z,4.63
2023-01-06T01:22:09.259Z,4.23
2023-01-06T01:24:39.190Z,5.40
2023-01-06T01:27:08.696Z,4.20
2023-01-06T01:29:37.647Z,4.37
2023-01-06T01:32:08.390Z,4.40
2023-01-06T01:34:37.901Z,4.60
2023-01-06T01:37:06.700Z,4.50
2023-01-06T01:39:35.647Z,4.13
2023-01-06T01:42:08.043Z,4.20
2023-01-06T01:45:06.889Z,3.70
2023-01-06T01:47:50.959Z,4.37
2023-01-06T01:50:29.760Z,4.00
2023-01-06T01:53:03.555Z,3.80
2023-01-06T01:55:35.101Z,4.07
2023-01-06T01:58:08.040Z,4.33
2023-01-06T02:00:37.852Z,4.07
2023-01-06T02:03:09.270Z,4.57
2023-01-06T02:05:42.730Z,4.40
2023-01-06T02:08:22.752Z,4.20
2023-01-06T02:10:51.789Z,4.77
2023-01-06T02:13:21.028Z,4.53
2023-01-06T02:15:50.906Z,4.60
2023-01-06T02:18:39.001Z,4.87
2023-01-06T02:21:28.822Z,5.10
2023-01-06T02:24:34.202Z,4.70
2023-01-06T02:27:44.867Z,4.53
2023-01-06T02:30:40.358Z,3.47
2023-01-06T02:33:20.940Z,3.80
2023-01-06T02:36:01.102Z,4.07
2023-01-06T02:38:42.052Z,4.00
2023-01-06T02:41:20.455Z,3.93
2023-01-06T02:43:59.880Z,3.83
2023-01-06T02:46:44.159Z,4.10
2023-01-06T02:49:22.616Z,4.63
2023-01-06T02:51:57.596Z,4.57
2023-01-06T02:54:33.681Z,4.87
2023-01-06T02:57:09.380Z,4.73
2023-01-06T02:59:43.368Z,4.67
2023-01-06T03:02:13.347Z,4.80
2023-01-06T03:04:49.843Z,4.53
2023-01-06T03:07:22.638Z,4.73
2023-01-06T03:09:54.807Z,4.63
2023-01-06T03:12:32.140Z,5.63
2023-01-06T03:15:01.776Z,7.23
2023-01-06T03:17:32.832Z,7.73
2023-01-06T03:20:03.374Z,4.50
2023-01-06T03:22:35.136Z,4.77
2023-01-06T03:25:03.890Z,4.97
2023-01-06T03:27:33.054Z,4.90
2023-01-06T03:30:03.116Z,5.00
2023-01-06T03:32:39.501Z,5.20
2023-01-06T03:35:35.506Z,4.37
2023-01-06T03:38:15.578Z,4.93
2023-01-06T03:40:52.775Z,4.97
2023-01-06T03:43:27.368Z,5.67
2023-01-06T03:46:05.044Z,5.77
2023-01-06T03:48:50.656Z,5.60
2023-01-06T03:51:32.010Z,4.97
2023-01-06T03:54:07.109Z,4.57
2023-01-06T03:56:40.914Z,5.10
2023-01-06T03:59:15.051Z,5.50
2023-01-06T04:01:46.104Z,5.30
2023-01-06T04:04:17.302Z,5.23
2023-01-06T04:06:47.848Z,4.30
2023-01-06T04:09:17.208Z,4.57
2023-01-06T04:12:04.174Z,4.37
2023-01-06T04:14:36.239Z,4.43
2023-01-06T04:17:05.547Z,4.77
2023-01-06T04:19:35.247Z,4.43
2023-01-06T04:22:06.435Z,4.30
2023-01-06T04:24:35.922Z,5.20
2023-01-06T04:27:05.120Z,4.97
2023-01-06T04:29:34.205Z,4.50
2023-01-06T04:32:03.244Z,4.70
2023-01-06T04:34:32.532Z,4.60
2023-01-06T04:37:01.976Z,4.67
2023-01-06T04:39:32.676Z,4.03
2023-01-06T04:42:01.800Z,4.07
2023-01-06T04:44:30.737Z,6.70
2023-01-06T04:46:59.467Z,8.33
2023-01-06T04:49:28.541Z,9.20
2023-01-06T04:51:57.563Z,6.73
2023-01-06T04:54:26.604Z,6.67
2023-01-06T04:56:57.143Z,5.97
2023-01-06T04:59:26.187Z,4.60
2023-01-06T05:01:55.018Z,5.33
2023-01-06T05:04:23.827Z,5.07
2023-01-06T05:06:52.854Z,4.73
2023-01-06T05:09:21.813Z,4.00
2023-01-06T05:11:50.922Z,3.70
2023-01-06T05:14:21.673Z,4.00
2023-01-06T05:16:50.524Z,4.57
2023-01-06T05:19:19.500Z,4.33
2023-01-06T05:21:48.341Z,3.90
2023-01-06T05:24:17.370Z,4.40
2023-01-06T05:26:46.320Z,4.70
2023-01-06T05:29:18.313Z,5.33
2023-01-06T05:31:48.821Z,5.07
2023-01-06T05:34:17.860Z,5.33
2023-01-06T05:36:46.915Z,4.40
2023-01-06T05:39:15.697Z,5.13
2023-01-06T05:41:44.736Z,6.03
2023-01-06T05:44:13.607Z,5.37
2023-01-06T05:46:42.810Z,5.13
2023-01-06T05:49:13.525Z,4.97
2023-01-06T05:51:42.463Z,4.27
2023-01-06T05:54:11.747Z,3.70
2023-01-06T05:56:40.874Z,4.03
2023-01-06T05:59:09.884Z,4.10
2023-01-06T06:01:39.129Z,4.23
2023-01-06T06:04:08.238Z,5.00
2023-01-06T06:06:38.955Z,5.60
2023-01-06T06:09:08.308Z,5.37
2023-01-06T06:11:37.195Z,5.73
2023-01-06T06:14:06.166Z,7.37
2023-01-06T06:16:35.229Z,7.80
2023-01-06T06:19:04.525Z,5.90
2023-01-06T06:21:33.539Z,5.53
2023-01-06T06:24:04.168Z,5.83
2023-01-06T06:26:33.207Z,5.60
2023-01-06T06:29:02.231Z,5.20
2023-01-06T06:31:31.332Z,5.37
2023-01-06T06:34:01.992Z,5.83
2023-01-06T06:36:31.908Z,4.90
2023-01-06T06:39:01.943Z,4.90
2023-01-06T06:41:32.716Z,4.60
2023-01-06T06:44:01.907Z,4.80
2023-01-06T06:46:30.701Z,4.93
2023-01-06T06:48:59.696Z,4.47
2023-01-06T06:51:28.670Z,5.27
2023-01-06T06:53:57.453Z,4.43
2023-01-06T06:56:26.676Z,4.90
2023-01-06T06:58:57.339Z,5.77
2023-01-06T07:01:26.296Z,6.90
2023-01-06T07:03:55.406Z,7.63
2023-01-06T07:06:28.063Z,6.33
2023-01-06T07:08:57.890Z,5.03
2023-01-06T07:11:26.953Z,5.13
2023-01-06T07:13:57.407Z,5.30
2023-01-06T07:16:26.860Z,4.60
2023-01-06T07:18:55.817Z,5.37
2023-01-06T07:21:24.980Z,4.57
2023-01-06T07:23:53.762Z,4.43
2023-01-06T07:26:22.404Z,4.40
2023-01-06T07:28:51.257Z,4.27
2023-01-06T07:31:21.361Z,4.60
2023-01-06T07:33:50.419Z,4.37
2023-01-06T07:36:19.115Z,4.50
2023-01-06T07:38:47.870Z,4.20
2023-01-06T07:41:16.537Z,5.10
2023-01-06T07:43:45.278Z,4.70
2023-01-06T07:46:14.027Z,4.67
2023-01-06T07:48:44.068Z,4.33
2023-01-06T07:51:12.710Z,4.30
2023-01-06T07:53:41.467Z,4.73
2023-01-06T07:56:10.136Z,4.47
2023-01-06T07:58:38.847Z,4.50
2023-01-06T08:01:08.299Z,4.43
2023-01-06T08:03:37.135Z,4.37
2023-01-06T08:06:11.920Z,4.90
2023-01-06T08:08:42.539Z,4.77
2023-01-06T08:11:13.582Z,5.53
2023-01-06T08:13:42.352Z,6.13
2023-01-06T08:16:12.107Z,12.63
2023-01-06T08:18:41.174Z,12.27
2023-01-06T08:21:12.672Z,9.23
2023-01-06T08:23:41.739Z,8.80
2023-01-06T08:26:13.708Z,5.60
2023-01-06T08:28:43.496Z,5.80
2023-01-06T08:31:13.358Z,5.73
2023-01-06T08:33:42.280Z,6.10
2023-01-06T08:36:15.072Z,8.40
2023-01-06T08:38:44.297Z,6.80
2023-01-06T08:41:13.764Z,5.90
2023-01-06T08:43:45.599Z,6.33
2023-01-06T08:46:17.406Z,5.77
2023-01-06T08:48:46.513Z,5.37
2023-01-06T08:51:20.799Z,5.90
2023-01-06T08:53:49.758Z,5.30
2023-01-06T08:56:20.237Z,5.00
2023-01-06T08:58:52.955Z,5.10
2023-01-06T09:01:24.709Z,4.63
2023-01-06T09:03:53.599Z,6.40
2023-01-06T09:06:23.799Z,6.40
2023-01-06T09:08:53.641Z,5.23
2023-01-06T09:11:22.671Z,4.60
2023-01-06T09:13:52.128Z,4.50
2023-01-06T09:16:21.911Z,5.13
2023-01-06T09:18:50.619Z,5.00
2023-01-06T09:21:21.315Z,5.17
2023-01-06T09:23:51.789Z,4.60
2023-01-06T09:26:21.669Z,5.03
2023-01-06T09:28:50.433Z,6.13
2023-01-06T09:31:19.371Z,4.97
2023-01-06T09:33:48.500Z,4.10
2023-01-06T09:36:17.152Z,4.63
2023-01-06T09:38:45.864Z,5.07
2023-01-06T09:42:05.184Z,5.20
2023-01-06T09:44:42.107Z,6.53
2023-01-06T09:47:14.060Z,6.47
2023-01-06T09:49:48.110Z,6.03
2023-01-06T09:52:24.852Z,5.23
2023-01-06T09:54:57.115Z,4.47
2023-01-06T09:57:32.009Z,4.00
2023-01-06T10:00:05.372Z,4.60
2023-01-06T10:02:38.479Z,4.27
2023-01-06T10:05:22.426Z,4.60
2023-01-06T10:07:57.688Z,5.00
2023-01-06T10:10:35.349Z,38.83
2023-01-06T10:13:26.575Z,14.77
2023-01-06T10:16:04.789Z,12.43
2023-01-06T10:18:41.486Z,9.17
2023-01-06T10:21:18.743Z,7.50
2023-01-06T10:24:16.282Z,9.20
2023-01-06T10:26:47.089Z,6.27
2023-01-06T10:29:18.321Z,8.50
2023-01-06T10:31:50.455Z,7.17
2023-01-06T10:34:23.255Z,6.37
2023-01-06T10:36:57.637Z,14.63
2023-01-06T10:39:28.997Z,7.20
2023-01-06T10:42:25.843Z,11.10
2023-01-06T10:44:54.837Z,6.10
2023-01-06T10:47:29.887Z,6.77
2023-01-06T10:49:59.764Z,7.83
2023-01-06T10:52:29.213Z,6.20
2023-01-06T10:55:03.631Z,6.80
2023-01-06T10:57:40.028Z,7.00
2023-01-06T11:00:12.149Z,6.77
2023-01-06T11:02:46.147Z,7.10
2023-01-06T11:05:17.704Z,9.23
2023-01-06T11:07:49.191Z,8.83
2023-01-06T11:10:27.754Z,8.53
2023-01-06T11:12:58.760Z,8.53
2023-01-06T11:15:35.705Z,10.17
2023-01-06T11:18:07.087Z,12.13
2023-01-06T11:20:36.315Z,10.20
2023-01-06T11:23:15.563Z,10.60
2023-01-06T11:25:44.269Z,10.50
2023-01-06T11:28:17.400Z,12.87
2023-01-06T11:30:52.084Z,13.37
2023-01-06T11:33:24.354Z,12.27
2023-01-06T11:35:54.160Z,12.60
2023-01-06T11:38:23.893Z,13.63
2023-01-06T11:40:54.738Z,15.33
2023-01-06T11:43:30.710Z,13.73
2023-01-06T11:46:03.561Z,12.87
2023-01-06T11:48:37.229Z,13.70
2023-01-06T11:51:08.104Z,13.13
2023-01-06T11:53:39.336Z,14.73
2023-01-06T11:56:18.465Z,16.83
2023-01-06T11:58:55.065Z,14.67
2023-01-06T12:01:31.122Z,15.73
2023-01-06T12:04:12.045Z,15.70
2023-01-06T12:06:43.776Z,16.53
2023-01-06T12:09:19.305Z,15.90
2023-01-06T12:11:50.501Z,16.83
2023-01-06T12:14:29.880Z,17.90
2023-01-06T12:17:07.952Z,19.83
2023-01-06T12:19:43.865Z,16.33
2023-01-06T12:22:23.810Z,17.07
2023-01-06T12:24:53.956Z,18.40
2023-01-06T12:27:32.992Z,18.63
2023-01-06T12:30:06.905Z,18.63
2023-01-06T12:32:40.980Z,19.97
2023-01-06T12:35:16.928Z,18.23
2023-01-06T12:37:51.840Z,17.80
2023-01-06T12:40:29.011Z,18.30
2023-01-06T12:43:03.877Z,18.20
2023-01-06T12:45:43.476Z,17.67
2023-01-06T12:48:22.229Z,16.67
2023-01-06T12:50:57.148Z,18.30
2023-01-06T12:53:28.454Z,20.03
2023-01-06T12:56:17.184Z,19.50
2023-01-06T12:58:57.131Z,17.10
2023-01-06T13:01:37.288Z,26.00
2023-01-06T13:04:59.516Z,14.23
2023-01-06T13:07:41.239Z,12.07
2023-01-06T13:10:20.900Z,11.50
2023-01-06T13:13:05.764Z,10.83
2023-01-06T13:15:38.276Z,11.77
2023-01-06T13:18:16.421Z,11.73
2023-01-06T13:20:50.321Z,11.83
2023-01-06T13:23:50.673Z,11.00
2023-01-06T13:26:46.918Z,12.37
2023-01-06T13:29:26.040Z,12.87
2023-01-06T13:32:17.504Z,14.13
2023-01-06T13:35:05.351Z,15.43
2023-01-06T13:37:39.210Z,14.60
2023-01-06T13:40:15.583Z,16.03
2023-01-06T13:42:48.950Z,14.67
2023-01-06T13:45:22.519Z,15.47
2023-01-06T13:47:52.504Z,16.43
2023-01-06T13:50:22.094Z,18.20
2023-01-06T13:52:52.234Z,17.17
2023-01-06T13:55:40.435Z,17.97
2023-01-06T13:58:38.694Z,18.63
2023-01-06T14:01:09.632Z,17.40
2023-01-06T14:03:40.118Z,18.00
2023-01-06T14:06:13.568Z,18.17
2023-01-06T14:08:51.812Z,18.80
2023-01-06T14:11:27.473Z,18.53
2023-01-06T14:13:58.669Z,19.13
2023-01-06T14:16:46.023Z,25.03
2023-01-06T14:19:19.109Z,17.60
2023-01-06T14:21:50.380Z,17.93
2023-01-06T14:24:24.791Z,17.13
2023-01-06T14:27:02.541Z,18.40
2023-01-06T14:30:06.279Z,19.73
2023-01-06T14:33:05.720Z,17.43
2023-01-06T14:35:42.139Z,21.40
2023-01-06T14:38:22.990Z,18.67
2023-01-06T14:40:57.568Z,25.97
2023-01-06T14:43:52.767Z,34.50
2023-01-06T14:46:26.264Z,44.57
2023-01-06T14:48:59.438Z,45.37
2023-01-06T14:51:30.210Z,24.57
2023-01-06T14:54:06.744Z,37.80
2023-01-06T14:56:36.252Z,21.30
2023-01-06T14:59:22.836Z,24.47
2023-01-06T15:02:01.211Z,33.00
2023-01-06T15:04:32.379Z,37.70
2023-01-06T15:07:17.117Z,22.00
2023-01-06T15:09:46.545Z,24.60
2023-01-06T15:12:26.595Z,25.73
2023-01-06T15:14:57.365Z,23.90
2023-01-06T15:17:26.438Z,27.63
2023-01-06T15:19:55.627Z,19.80
2023-01-06T15:22:26.555Z,21.77
2023-01-06T15:24:56.621Z,23.40
2023-01-06T15:27:25.489Z,23.53
2023-01-06T15:29:57.350Z,17.77
2023-01-06T15:32:28.283Z,22.87
2023-01-06T15:34:59.574Z,16.23
2023-01-06T15:37:34.868Z,23.93
2023-01-06T15:40:06.532Z,24.43
2023-01-06T15:42:36.354Z,25.27
2023-01-06T15:45:08.171Z,17.63
2023-01-06T15:47:42.170Z,28.02
2023-01-06T15:50:18.498Z,19.17
2023-01-06T15:52:49.956Z,24.10
2023-01-06T15:55:26.785Z,25.00
2023-01-06T15:58:00.299Z,22.90
2023-01-06T16:00:32.909Z,22.40
2023-01-06T16:03:01.870Z,20.53
2023-01-06T16:05:36.294Z,20.60
2023-01-06T16:08:07.054Z,21.43
2023-01-06T16:10:37.935Z,21.20
2023-01-06T16:13:18.656Z,20.73
2023-01-06T16:15:51.066Z,19.20
2023-01-06T16:18:29.216Z,19.47
2023-01-06T16:20:58.771Z,23.93
2023-01-06T16:23:35.090Z,21.50
2023-01-06T16:26:12.999Z,20.90
2023-01-06T16:28:49.124Z,22.33
2023-01-06T16:31:32.768Z,26.03
2023-01-06T16:34:25.585Z,21.70
2023-01-06T16:36:57.467Z,22.43
2023-01-06T16:39:27.413Z,22.33
2023-01-06T16:42:42.292Z,25.20
2023-01-06T16:45:22.914Z,24.07
2023-01-06T16:48:09.576Z,25.47
2023-01-06T16:50:41.552Z,23.07
2023-01-06T16:53:16.264Z,23.83
2023-01-06T16:55:45.761Z,23.13
2023-01-06T16:58:17.324Z,24.27
2023-01-06T17:00:51.575Z,23.87
2023-01-06T17:03:23.947Z,22.07
2023-01-06T17:05:53.082Z,23.47
2023-01-06T17:08:27.010Z,22.10
2023-01-06T17:10:56.175Z,23.50
2023-01-06T17:13:39.024Z,23.03
2023-01-06T17:16:17.035Z,22.93
2023-01-06T17:18:52.442Z,22.23
2023-01-06T17:21:24.680Z,22.10
2023-01-06T17:23:56.695Z,26.60
2023-01-06T17:26:25.654Z,22.27
2023-01-06T17:28:57.483Z,22.30
2023-01-06T17:31:32.905Z,21.70
2023-01-06T17:34:12.723Z,20.33
2023-01-06T17:36:43.747Z,20.57
2023-01-06T17:39:17.320Z,21.47
2023-01-06T17:41:46.307Z,23.33
2023-01-06T17:44:17.937Z,22.67
2023-01-06T17:46:47.853Z,20.53
2023-01-06T17:49:36.584Z,20.37
2023-01-06T17:52:19.672Z,22.50
2023-01-06T17:55:15.464Z,23.07
2023-01-06T17:57:47.165Z,22.63
2023-01-06T18:00:25.803Z,23.27
2023-01-06T18:03:00.648Z,22.20
2023-01-06T18:06:06.103Z,23.70
2023-01-06T18:08:38.725Z,23.17
2023-01-06T18:11:27.335Z,23.67
2023-01-06T18:13:57.544Z,24.57
2023-01-06T18:16:33.072Z,24.43
2023-01-06T18:19:20.945Z,24.70
2023-01-06T18:21:49.966Z,25.77
2023-01-06T18:24:24.722Z,25.13
2023-01-06T18:26:57.178Z,26.27
2023-01-06T18:29:29.692Z,27.17
2023-01-06T18:32:17.425Z,25.20
2023-01-06T18:34:47.270Z,24.97
2023-01-06T18:37:17.871Z,24.93
2023-01-06T18:39:52.125Z,24.70
2023-01-06T18:42:25.643Z,24.27
2023-01-06T18:45:04.068Z,24.23
2023-01-06T18:47:36.547Z,22.90
2023-01-06T18:50:32.791Z,21.43
2023-01-06T18:53:06.872Z,21.80
2023-01-06T18:55:43.044Z,21.97
2023-01-06T18:58:30.018Z,21.37
2023-01-06T19:01:02.268Z,20.73
2023-01-06T19:03:39.057Z,19.27
2023-01-06T19:06:35.942Z,20.50
2023-01-06T19:09:19.707Z,21.47
2023-01-06T19:11:57.584Z,20.27
2023-01-06T19:14:26.935Z,21.00
2023-01-06T19:16:57.779Z,21.27
2023-01-06T19:19:33.196Z,21.37
2023-01-06T19:22:15.583Z,20.97
2023-01-06T19:24:49.640Z,20.53
2023-01-06T19:27:41.047Z,20.20
2023-01-06T19:30:36.834Z,20.23
2023-01-06T19:33:20.257Z,20.80
2023-01-06T19:35:50.865Z,20.13
2023-01-06T19:38:27.070Z,19.87
2023-01-06T19:40:58.955Z,20.23
2023-01-06T19:43:33.609Z,18.97
2023-01-06T19:46:06.161Z,18.83
2023-01-06T19:48:40.297Z,18.63
2023-01-06T19:51:27.588Z,17.67
2023-01-06T19:54:01.123Z,16.80
2023-01-06T19:56:34.717Z,17.80
2023-01-06T19:59:13.555Z,17.00
2023-01-06T20:01:43.575Z,17.33
2023-01-06T20:04:20.941Z,16.07
2023-01-06T20:06:50.913Z,15.53
2023-01-06T20:09:21.759Z,14.03
2023-01-06T20:11:52.163Z,14.80
2023-01-06T20:14:24.308Z,14.83
2023-01-06T20:16:54.406Z,15.40
2023-01-06T20:19:24.897Z,14.77
2023-01-06T20:21:55.175Z,14.50
2023-01-06T20:24:24.978Z,14.73
2023-01-06T20:26:55.343Z,15.87
2023-01-06T20:29:26.510Z,14.00
2023-01-06T20:31:56.770Z,15.07
2023-01-06T20:34:26.576Z,14.20
2023-01-06T20:36:56.239Z,15.37
2023-01-06T20:39:25.856Z,14.90
2023-01-06T20:41:56.622Z,15.20
2023-01-06T20:44:27.844Z,14.93
2023-01-06T20:46:57.740Z,15.83
2023-01-06T20:49:27.752Z,15.37
2023-01-06T20:51:57.491Z,14.70
2023-01-06T20:54:27.303Z,14.73
2023-01-06T20:56:57.341Z,15.43
2023-01-06T20:59:28.617Z,14.93
2023-01-06T21:01:58.526Z,14.93
2023-01-06T21:04:28.739Z,14.93
2023-01-06T21:06:58.100Z,14.20
2023-01-06T21:09:29.251Z,13.93
2023-01-06T21:11:58.849Z,14.53
2023-01-06T21:14:30.936Z,14.70
2023-01-06T21:17:01.112Z,15.40
2023-01-06T21:19:31.061Z,15.70
2023-01-06T21:22:00.746Z,15.13
2023-01-06T21:24:30.056Z,15.43
2023-01-06T21:26:59.764Z,16.93
2023-01-06T21:29:30.504Z,16.07
2023-01-06T21:31:59.500Z,16.07
2023-01-06T21:34:29.036Z,15.90
2023-01-06T21:36:57.969Z,16.50
2023-01-06T21:39:27.342Z,15.93
2023-01-06T21:42:13.723Z,15.27
2023-01-06T21:44:44.814Z,15.83
2023-01-06T21:47:14.697Z,15.70
2023-01-06T21:49:45.212Z,15.40
2023-01-06T21:52:15.447Z,15.30
2023-01-06T21:54:45.647Z,14.67
2023-01-06T21:57:15.090Z,13.83
2023-01-06T21:59:45.926Z,13.83
2023-01-06T22:02:16.777Z,14.13
2023-01-06T22:04:45.961Z,13.57
2023-01-06T22:07:15.588Z,13.87
2023-01-06T22:09:45.758Z,13.60
2023-01-06T22:12:17.446Z,12.47
2023-01-06T22:14:49.387Z,13.23
2023-01-06T22:17:19.292Z,13.03
2023-01-06T22:19:50.111Z,13.07
2023-01-06T22:22:21.350Z,13.37
2023-01-06T22:24:51.988Z,13.90
2023-01-06T22:27:21.016Z,14.00
2023-01-06T22:29:51.629Z,13.93
2023-01-06T22:32:20.719Z,16.80
2023-01-06T22:34:49.395Z,14.20
2023-01-06T22:37:18.295Z,14.87
2023-01-06T22:39:47.270Z,14.80
2023-01-06T22:42:16.393Z,14.27
2023-01-06T22:44:45.403Z,14.50
2023-01-06T22:47:15.919Z,16.90
2023-01-06T22:49:45.027Z,14.37
2023-01-06T22:52:14.087Z,14.10
2023-01-06T22:54:43.180Z,13.53
2023-01-06T22:57:11.981Z,12.50
2023-01-06T22:59:40.974Z,12.27
2023-01-06T23:02:11.682Z,11.50
2023-01-06T23:04:43.224Z,13.10
2023-01-06T23:07:12.904Z,13.17
2023-01-06T23:09:41.791Z,13.37
2023-01-06T23:12:10.948Z,13.37
2023-01-06T23:14:39.599Z,13.93
2023-01-06T23:17:08.627Z,14.50
2023-01-06T23:19:37.336Z,13.73
2023-01-06T23:22:07.805Z,14.77
2023-01-06T23:24:36.680Z,15.67
2023-01-06T23:27:05.769Z,17.20
2023-01-06T23:29:34.537Z,16.10
2023-01-06T23:32:03.454Z,15.07
2023-01-06T23:34:32.625Z,14.93
2023-01-06T23:37:01.686Z,15.23
2023-01-06T23:39:32.141Z,15.07
2023-01-06T23:42:01.205Z,14.57
2023-01-06T23:44:30.109Z,14.37
2023-01-06T23:46:59.090Z,13.33
2023-01-06T23:49:28.134Z,13.53
2023-01-06T23:51:57.175Z,14.57
2023-01-06T23:54:26.260Z,14.80
2023-01-06T23:56:56.938Z,14.37
2023-01-06T23:59:25.682Z,13.43
